KADW/ADW METAR and TAF weather

Enter ICAO airport designator
Station Type Date Time Source
KADW METAR 2022/01/25 05:56 UTC NOAA

KADW 250556Z AUTO 20007KT 10SM CLR 02/M04 A2979 RMK AO2 SLP097 T00221039 10033 21001 55003 $


Station Type Date Time Source
KADW Decoded METAR 2022/01/25 05:56 UTC NOAA

Camp Springs / Andrews Air Force Base, MD, United States (KADW) 38-49N 076-51W 88M
Jan 25, 2022 - 12:56 AM EST / 2022.01.25 0556 UTC
Wind: from the SSW (200 degrees) at 8 MPH (7 KT):0
Visibility: 10 mile(s):0
Sky conditions: clear
Temperature: 36.0 F (2.2 C)
Dew Point: 25.0 F (-3.9 C)
Relative Humidity: 63%
Pressure (altimeter): 29.79 in. Hg (1008 hPa)
Pressure tendency: 0.01 inches (0.3 hPa) lower than three hours ago
ob: KADW 250556Z AUTO 20007KT 10SM CLR 02/M04 A2979 RMK AO2 SLP097 T00221039 10033 21001 55003
cycle: 6

Station Type Date Time Source
KADW TAF 2022/01/25 01:18 UTC NOAA

TAF TAF KADW 250100Z 2501/2607 19009KT 9999 SCT040 520053 QNH2979INS
BECMG 2512/2513 26008KT 9999 FEW020 SCT040 BKN150 510052 QNH2984INS
BECMG 2516/2517 32010G20KT 9999 SCT070 QNH2995INS TX04/2517Z TN00/2501Z

Example: see airport list